createdAt,value
2022-10-25T00:02:57.115Z,13.80
2022-10-25T00:05:58.683Z,15.10
2022-10-25T00:09:00.861Z,13.80
2022-10-25T00:12:02.516Z,14.20
2022-10-25T00:15:04.729Z,15.20
2022-10-25T00:18:06.270Z,14.40
2022-10-25T00:21:10.296Z,14.00
2022-10-25T00:24:13.030Z,14.20
2022-10-25T00:27:14.656Z,14.10
2022-10-25T00:30:16.479Z,13.70
2022-10-25T00:33:18.038Z,14.40
2022-10-25T00:36:22.367Z,13.90
2022-10-25T00:39:23.964Z,15.40
2022-10-25T00:42:26.850Z,14.10
2022-10-25T00:45:28.850Z,14.70
2022-10-25T00:48:30.803Z,14.30
2022-10-25T00:51:55.164Z,14.30
2022-10-25T00:54:58.414Z,15.20
2022-10-25T00:58:06.507Z,14.40
2022-10-25T01:01:09.973Z,15.00
2022-10-25T01:04:16.857Z,14.50
2022-10-25T01:07:18.450Z,14.00
2022-10-25T01:10:20.497Z,13.90
2022-10-25T01:13:22.601Z,12.40
2022-10-25T01:16:32.359Z,16.60
2022-10-25T01:19:49.526Z,14.00
2022-10-25T01:23:09.251Z,14.50
2022-10-25T01:26:45.619Z,14.30
2022-10-25T01:30:13.183Z,14.40
2022-10-25T01:33:31.808Z,13.90
2022-10-25T01:36:54.415Z,14.40
2022-10-25T01:40:11.088Z,14.10
2022-10-25T01:43:22.608Z,14.70
2022-10-25T01:46:28.987Z,14.40
2022-10-25T01:50:11.487Z,14.10
2022-10-25T01:53:13.561Z,14.40
2022-10-25T01:56:43.843Z,12.20
2022-10-25T01:59:48.436Z,14.40
2022-10-25T02:03:06.504Z,14.60
2022-10-25T02:06:22.474Z,14.50
2022-10-25T02:09:39.238Z,14.70
2022-10-25T02:12:55.612Z,14.40
2022-10-25T02:16:09.562Z,15.90
2022-10-25T02:19:16.099Z,14.30
2022-10-25T02:22:20.882Z,14.20
2022-10-25T02:25:22.777Z,14.30
2022-10-25T02:28:26.739Z,16.00
2022-10-25T02:31:30.535Z,14.10
2022-10-25T02:34:33.013Z,14.10
2022-10-25T02:37:34.527Z,14.40
2022-10-25T02:40:36.548Z,14.30
2022-10-25T02:43:38.138Z,14.20
2022-10-25T02:46:39.830Z,14.30
2022-10-25T02:49:41.493Z,14.40
2022-10-25T02:52:43.178Z,14.30
2022-10-25T02:55:44.774Z,14.50
2022-10-25T02:58:47.879Z,14.30
2022-10-25T03:01:49.520Z,14.60
2022-10-25T03:04:51.200Z,14.40
2022-10-25T03:07:52.726Z,16.30
2022-10-25T03:10:54.676Z,14.50
2022-10-25T03:13:56.234Z,14.30
2022-10-25T03:16:57.776Z,14.70
2022-10-25T03:19:59.304Z,14.60
2022-10-25T03:23:01.128Z,14.20
2022-10-25T03:26:02.735Z,14.30
2022-10-25T03:29:04.356Z,14.70
2022-10-25T03:32:07.626Z,14.60
2022-10-25T03:35:09.491Z,14.50
2022-10-25T03:38:11.318Z,14.70
2022-10-25T03:41:12.858Z,14.20
2022-10-25T03:44:14.552Z,14.10
2022-10-25T03:47:16.497Z,14.30
2022-10-25T03:50:18.413Z,14.40
2022-10-25T03:53:20.239Z,14.40
2022-10-25T03:56:21.798Z,14.10
2022-10-25T03:59:23.361Z,14.30
2022-10-25T04:02:25.416Z,14.20
2022-10-25T04:05:27.280Z,14.30
2022-10-25T04:08:28.863Z,13.60
2022-10-25T04:11:30.402Z,14.00
2022-10-25T04:14:31.967Z,14.20
2022-10-25T04:17:33.502Z,14.30
2022-10-25T04:20:35.091Z,14.20
2022-10-25T04:23:37.038Z,14.10
2022-10-25T04:26:38.819Z,14.40
2022-10-25T04:29:40.415Z,14.30
2022-10-25T04:32:42.103Z,14.20
2022-10-25T04:35:43.663Z,14.40
2022-10-25T04:38:48.940Z,14.40
2022-10-25T04:41:50.537Z,14.40
2022-10-25T04:44:52.127Z,14.40
2022-10-25T04:47:53.665Z,14.10
2022-10-25T04:50:55.271Z,14.10
2022-10-25T04:53:56.840Z,13.60
2022-10-25T04:56:58.420Z,14.30
2022-10-25T05:00:00.005Z,14.20
2022-10-25T05:03:01.706Z,14.30
2022-10-25T05:06:08.930Z,14.30
2022-10-25T05:09:10.475Z,14.30
2022-10-25T05:12:12.017Z,14.00
2022-10-25T05:15:13.841Z,14.00
2022-10-25T05:18:15.375Z,14.20
2022-10-25T05:21:18.149Z,14.10
2022-10-25T05:24:19.886Z,14.20
2022-10-25T05:27:21.594Z,14.10
2022-10-25T05:30:23.172Z,15.50
2022-10-25T05:33:24.909Z,14.10
2022-10-25T05:36:32.641Z,14.00
2022-10-25T05:39:34.190Z,14.40
2022-10-25T05:42:35.757Z,14.40
2022-10-25T05:45:37.323Z,16.10
2022-10-25T05:48:39.325Z,13.90
2022-10-25T05:51:41.006Z,14.20
2022-10-25T05:54:42.627Z,14.20
2022-10-25T05:57:49.732Z,12.30
2022-10-25T06:00:51.301Z,14.40
2022-10-25T06:03:54.540Z,16.10
2022-10-25T06:06:57.844Z,14.10
2022-10-25T06:09:59.404Z,14.00
2022-10-25T06:13:01.534Z,14.30
2022-10-25T06:16:05.258Z,14.50
2022-10-25T06:19:07.469Z,14.30
2022-10-25T06:22:09.046Z,14.30
2022-10-25T06:25:10.601Z,14.40
2022-10-25T06:28:12.340Z,15.40
2022-10-25T06:31:16.508Z,15.30
2022-10-25T06:34:18.076Z,14.50
2022-10-25T06:37:19.811Z,14.30
2022-10-25T06:43:23.834Z,14.50
2022-10-25T06:46:27.892Z,14.10
2022-10-25T06:49:29.424Z,14.40
2022-10-25T06:52:30.955Z,14.30
2022-10-25T06:55:32.463Z,14.40
2022-10-25T06:58:35.655Z,14.40
2022-10-25T07:01:37.487Z,14.10
2022-10-25T07:04:39.142Z,14.40
2022-10-25T07:07:40.647Z,14.00
2022-10-25T07:10:42.194Z,14.10
2022-10-25T07:13:44.013Z,14.50
2022-10-25T07:16:45.550Z,14.20
2022-10-25T07:19:47.123Z,14.40
2022-10-25T07:22:50.134Z,14.10
2022-10-25T07:25:51.656Z,15.80
2022-10-25T07:28:55.315Z,14.30
2022-10-25T07:31:56.905Z,14.10
2022-10-25T07:38:05.015Z,16.00
2022-10-25T07:41:06.949Z,14.40
2022-10-25T07:44:13.029Z,14.00
2022-10-25T07:47:17.747Z,13.90
2022-10-25T07:50:19.673Z,14.00
2022-10-25T07:53:21.301Z,14.30
2022-10-25T07:56:23.922Z,14.30
2022-10-25T07:59:25.599Z,15.00
2022-10-25T08:02:27.187Z,14.00
2022-10-25T08:05:31.595Z,14.30
2022-10-25T08:08:36.654Z,14.30
2022-10-25T08:11:38.224Z,14.20
2022-10-25T08:14:41.620Z,14.20
2022-10-25T08:17:45.297Z,14.40
2022-10-25T08:21:01.716Z,14.60
2022-10-25T08:24:04.881Z,15.00
2022-10-25T08:27:06.512Z,14.70
2022-10-25T08:30:08.729Z,14.50
2022-10-25T08:33:11.762Z,14.80
2022-10-25T08:36:13.765Z,14.30
2022-10-25T08:39:17.196Z,14.60
2022-10-25T08:42:36.017Z,14.80
2022-10-25T08:45:43.780Z,14.90
2022-10-25T08:49:01.878Z,14.70
2022-10-25T08:52:06.924Z,14.90
2022-10-25T08:55:31.232Z,15.10
2022-10-25T08:58:35.416Z,15.40
2022-10-25T09:01:43.920Z,15.90
2022-10-25T09:04:46.052Z,15.20
2022-10-25T09:08:05.238Z,15.70
2022-10-25T09:11:34.412Z,15.70
2022-10-25T09:15:18.790Z,16.00
2022-10-25T09:18:29.695Z,15.40
2022-10-25T09:21:37.484Z,15.50
2022-10-25T09:24:56.870Z,15.50
2022-10-25T09:28:03.611Z,15.50
2022-10-25T09:31:07.559Z,15.80
2022-10-25T09:34:10.794Z,15.90
2022-10-25T09:37:18.005Z,15.70
2022-10-25T09:40:47.607Z,15.70
2022-10-25T09:44:01.062Z,15.80
2022-10-25T09:47:19.269Z,15.70
2022-10-25T09:50:37.121Z,15.80
2022-10-25T09:53:41.472Z,16.40
2022-10-25T09:56:43.058Z,15.20
2022-10-25T09:59:49.967Z,15.10
2022-10-25T10:02:51.755Z,15.90
2022-10-25T10:05:56.644Z,15.90
2022-10-25T10:09:03.832Z,15.70
2022-10-25T10:12:07.723Z,15.80
2022-10-25T10:15:30.029Z,16.10
2022-10-25T10:18:33.658Z,15.70
2022-10-25T10:21:37.032Z,15.50
2022-10-25T10:24:44.466Z,15.80
2022-10-25T10:27:47.932Z,16.10
2022-10-25T10:30:54.991Z,15.40
2022-10-25T10:33:56.605Z,15.70
2022-10-25T10:37:28.272Z,16.00
2022-10-25T10:40:29.824Z,16.70
2022-10-25T10:43:34.144Z,16.50
2022-10-25T10:46:35.861Z,16.10
2022-10-25T10:49:40.941Z,16.00
2022-10-25T10:52:45.619Z,16.10
2022-10-25T10:55:52.832Z,16.60
2022-10-25T10:58:54.691Z,16.50
2022-10-25T11:01:56.929Z,16.40
2022-10-25T11:04:58.593Z,16.50
2022-10-25T11:08:07.503Z,18.00
2022-10-25T11:11:27.134Z,16.70
2022-10-25T11:14:28.719Z,16.80
2022-10-25T11:17:37.017Z,17.00
2022-10-25T11:20:53.195Z,17.00
2022-10-25T11:24:24.999Z,17.30
2022-10-25T11:27:44.767Z,17.40
2022-10-25T11:31:07.952Z,17.30
2022-10-25T11:34:24.148Z,17.60
2022-10-25T11:37:34.132Z,17.30
2022-10-25T11:40:54.730Z,17.40
2022-10-25T11:43:56.193Z,17.40
2022-10-25T11:47:43.806Z,18.20
2022-10-25T11:50:57.635Z,17.30
2022-10-25T11:54:21.758Z,17.40
2022-10-25T11:57:54.478Z,17.50
2022-10-25T12:01:24.619Z,17.00
2022-10-25T12:04:53.238Z,17.10
2022-10-25T12:08:18.961Z,18.50
2022-10-25T12:11:45.140Z,17.30
2022-10-25T12:14:51.804Z,16.90
2022-10-25T12:17:53.964Z,17.40
2022-10-25T12:20:57.260Z,17.20
2022-10-25T12:23:59.696Z,18.40
2022-10-25T12:27:01.838Z,17.10
2022-10-25T12:30:07.164Z,17.40
2022-10-25T12:33:41.648Z,16.90
2022-10-25T12:37:07.967Z,17.40
2022-10-25T12:40:20.335Z,19.30
2022-10-25T12:43:31.217Z,19.60
2022-10-25T12:47:01.571Z,17.00
2022-10-25T12:50:06.311Z,18.00
2022-10-25T12:53:49.099Z,16.90
2022-10-25T12:56:50.633Z,17.30
2022-10-25T13:00:30.735Z,16.80
2022-10-25T13:03:54.090Z,17.10
2022-10-25T13:06:57.743Z,17.10
2022-10-25T13:10:31.206Z,18.10
2022-10-25T13:13:49.197Z,17.20
2022-10-25T13:16:51.419Z,16.30
2022-10-25T13:19:56.772Z,19.00
2022-10-25T13:23:21.529Z,19.60
2022-10-25T13:26:27.103Z,17.20
2022-10-25T13:29:47.659Z,17.30
2022-10-25T13:33:12.413Z,17.70
2022-10-25T13:36:14.019Z,17.80
2022-10-25T13:39:18.900Z,18.20
2022-10-25T13:42:34.844Z,17.80
2022-10-25T13:45:42.851Z,17.30
2022-10-25T13:48:44.432Z,17.40
2022-10-25T13:51:46.916Z,17.80
2022-10-25T13:54:51.756Z,17.50
2022-10-25T13:57:54.875Z,17.30
2022-10-25T14:01:17.487Z,17.20
2022-10-25T14:04:39.735Z,17.30
2022-10-25T14:07:46.388Z,17.30
2022-10-25T14:10:50.583Z,17.30
2022-10-25T14:13:55.624Z,17.20
2022-10-25T14:17:03.214Z,16.90
2022-10-25T14:20:29.031Z,17.30
2022-10-25T14:23:34.450Z,17.20
2022-10-25T14:26:35.997Z,17.00
2022-10-25T14:29:37.564Z,17.10
2022-10-25T14:32:39.263Z,16.90
2022-10-25T14:35:49.749Z,16.90
2022-10-25T14:38:51.223Z,16.90
2022-10-25T14:42:01.490Z,18.70
2022-10-25T14:45:03.157Z,17.00
2022-10-25T14:48:10.686Z,16.60
2022-10-25T14:51:21.865Z,16.80
2022-10-25T14:54:33.268Z,16.80
2022-10-25T14:57:36.172Z,16.40
2022-10-25T15:00:37.747Z,16.60
2022-10-25T15:03:42.537Z,16.80
2022-10-25T15:06:48.171Z,16.90
2022-10-25T15:09:51.874Z,16.70
2022-10-25T15:12:53.699Z,16.40
2022-10-25T15:15:56.492Z,16.70
2022-10-25T15:19:25.548Z,16.10
2022-10-25T15:22:37.555Z,17.50
2022-10-25T15:25:39.118Z,16.10
2022-10-25T15:28:48.156Z,16.30
2022-10-25T15:31:49.856Z,16.20
2022-10-25T15:34:53.848Z,16.00
2022-10-25T15:37:56.096Z,15.90
2022-10-25T15:40:57.851Z,15.60
2022-10-25T15:43:59.398Z,15.50
2022-10-25T15:47:02.080Z,15.80
2022-10-25T15:50:12.956Z,15.40
2022-10-25T15:53:14.501Z,15.20
2022-10-25T15:56:18.993Z,15.10
2022-10-25T15:59:20.575Z,15.40
2022-10-25T16:02:31.730Z,17.40
2022-10-25T16:05:35.346Z,15.50
2022-10-25T16:08:36.902Z,17.10
2022-10-25T16:11:43.702Z,15.30
2022-10-25T16:14:50.061Z,15.60
2022-10-25T16:17:51.595Z,16.20
2022-10-25T16:20:56.342Z,15.60
2022-10-25T16:23:57.827Z,15.50
2022-10-25T16:27:01.105Z,15.50
2022-10-25T16:30:02.857Z,15.60
2022-10-25T16:33:04.427Z,15.70
2022-10-25T16:36:06.356Z,17.40
2022-10-25T16:39:08.805Z,15.20
2022-10-25T16:42:31.552Z,13.50
2022-10-25T16:45:38.624Z,14.80
2022-10-25T16:48:40.158Z,15.10
2022-10-25T16:51:42.002Z,14.90
2022-10-25T16:54:43.792Z,14.70
2022-10-25T16:57:45.457Z,14.50
2022-10-25T17:00:47.242Z,14.50
2022-10-25T17:03:52.539Z,14.50
2022-10-25T17:06:54.107Z,14.00
2022-10-25T17:09:56.680Z,14.50
2022-10-25T17:13:03.054Z,14.10
2022-10-25T17:16:06.661Z,14.50
2022-10-25T17:19:10.547Z,13.90
2022-10-25T17:22:12.155Z,16.00
2022-10-25T17:25:13.722Z,13.90
2022-10-25T17:28:15.292Z,14.00
2022-10-25T17:31:17.107Z,13.70
2022-10-25T17:34:18.745Z,14.00
2022-10-25T17:37:20.682Z,14.00
2022-10-25T17:40:22.517Z,13.50
2022-10-25T17:43:24.072Z,13.80
2022-10-25T17:46:29.091Z,13.80
2022-10-25T17:49:30.646Z,13.80
2022-10-25T17:52:32.267Z,13.50
2022-10-25T17:55:38.007Z,13.80
2022-10-25T17:58:43.894Z,13.70
2022-10-25T18:01:45.489Z,13.60
2022-10-25T18:05:01.441Z,13.40
2022-10-25T18:08:09.722Z,13.40
2022-10-25T18:11:22.151Z,13.40
2022-10-25T18:14:23.708Z,13.30
2022-10-25T18:17:25.286Z,13.50
2022-10-25T18:20:26.812Z,13.40
2022-10-25T18:23:28.353Z,13.50
2022-10-25T18:26:30.711Z,13.90
2022-10-25T18:29:35.100Z,13.60
2022-10-25T18:32:36.675Z,13.70
2022-10-25T18:35:38.200Z,13.00
2022-10-25T18:38:39.941Z,13.30
2022-10-25T18:41:42.440Z,13.50
2022-10-25T18:44:44.069Z,13.50
2022-10-25T18:47:50.027Z,13.30
2022-10-25T18:50:52.189Z,13.20
2022-10-25T18:53:55.094Z,13.20
2022-10-25T18:56:56.636Z,13.30
2022-10-25T18:59:58.245Z,13.70
2022-10-25T19:02:59.829Z,12.90
2022-10-25T19:06:02.072Z,13.30
2022-10-25T19:09:04.549Z,13.20
2022-10-25T19:12:06.192Z,13.30
2022-10-25T19:15:08.152Z,13.40
2022-10-25T19:18:09.811Z,13.10
2022-10-25T19:21:13.517Z,13.10
2022-10-25T19:24:16.513Z,13.10
2022-10-25T19:27:18.100Z,13.00
2022-10-25T19:30:19.653Z,13.00
2022-10-25T19:33:21.269Z,14.20
2022-10-25T19:36:22.790Z,12.90
2022-10-25T19:39:25.353Z,12.80
2022-10-25T19:42:26.980Z,13.00
2022-10-25T19:45:28.924Z,13.40
2022-10-25T19:48:30.976Z,13.30
2022-10-25T19:51:32.674Z,13.20
2022-10-25T19:54:34.244Z,13.10
2022-10-25T19:57:35.819Z,13.30
2022-10-25T20:00:37.346Z,15.40
2022-10-25T20:03:39.820Z,14.60
2022-10-25T20:06:41.398Z,13.40
2022-10-25T20:09:42.938Z,12.80
2022-10-25T20:12:44.477Z,13.20
2022-10-25T20:15:51.363Z,13.40
2022-10-25T20:18:53.598Z,14.70
2022-10-25T20:21:55.280Z,13.20
2022-10-25T20:24:56.837Z,13.10
2022-10-25T20:28:02.301Z,12.80
2022-10-25T20:31:04.324Z,12.60
2022-10-25T20:34:06.182Z,13.00
2022-10-25T20:37:09.707Z,12.60
2022-10-25T20:40:11.577Z,12.60
2022-10-25T20:43:13.150Z,12.90
2022-10-25T20:46:15.180Z,12.70
2022-10-25T20:49:16.769Z,12.50
2022-10-25T20:52:18.293Z,12.90
2022-10-25T20:55:20.982Z,12.70
2022-10-25T20:58:23.471Z,12.70
2022-10-25T21:01:25.035Z,12.70
2022-10-25T21:04:42.302Z,12.80
2022-10-25T21:07:48.480Z,12.70
2022-10-25T21:10:55.122Z,12.80
2022-10-25T21:13:56.633Z,13.00
2022-10-25T21:16:58.218Z,12.90
2022-10-25T21:19:59.832Z,13.00
2022-10-25T21:23:01.364Z,13.10
2022-10-25T21:26:05.187Z,12.90
2022-10-25T21:29:07.204Z,12.70
2022-10-25T21:32:08.832Z,13.10
2022-10-25T21:35:10.444Z,12.70
2022-10-25T21:38:12.040Z,14.40
2022-10-25T21:41:16.473Z,12.80
2022-10-25T21:44:18.428Z,12.70
2022-10-25T21:47:19.922Z,13.00
2022-10-25T21:50:21.467Z,13.10
2022-10-25T21:53:23.079Z,13.20
2022-10-25T21:56:30.650Z,12.70
2022-10-25T21:59:33.358Z,12.70
2022-10-25T22:02:35.088Z,12.80
2022-10-25T22:05:42.915Z,13.80
2022-10-25T22:08:44.809Z,13.00
2022-10-25T22:11:50.459Z,14.40
2022-10-25T22:14:52.095Z,12.80
2022-10-25T22:17:53.699Z,12.90
2022-10-25T22:20:57.617Z,13.10
2022-10-25T22:23:59.381Z,13.00
2022-10-25T22:27:00.960Z,13.10
2022-10-25T22:30:02.742Z,12.70
2022-10-25T22:33:04.668Z,13.10
2022-10-25T22:36:18.052Z,12.90
2022-10-25T22:39:19.595Z,12.80
2022-10-25T22:42:21.204Z,12.90
2022-10-25T22:45:22.972Z,12.90
2022-10-25T22:48:24.534Z,13.20
2022-10-25T22:51:30.593Z,12.50
2022-10-25T22:54:32.195Z,13.10
2022-10-25T22:57:33.726Z,12.70
2022-10-25T23:00:35.323Z,12.40
2022-10-25T23:03:48.892Z,12.70
2022-10-25T23:06:50.501Z,12.80
2022-10-25T23:09:52.082Z,12.80
2022-10-25T23:12:53.817Z,13.30
2022-10-25T23:15:55.388Z,13.00
2022-10-25T23:18:57.092Z,12.80
2022-10-25T23:21:58.621Z,14.10
2022-10-25T23:25:00.139Z,12.90
2022-10-25T23:28:01.667Z,12.90
2022-10-25T23:31:09.118Z,12.40
2022-10-25T23:34:11.182Z,12.20
2022-10-25T23:37:12.849Z,12.60
2022-10-25T23:40:14.569Z,13.90
2022-10-25T23:43:16.094Z,12.70
2022-10-25T23:46:17.811Z,12.80
2022-10-25T23:49:19.321Z,12.40
2022-10-25T23:52:20.869Z,12.10
2022-10-25T23:55:22.471Z,12.50
2022-10-25T23:58:24.142Z,12.10
